createdAt,value
2019-04-30T00:01:58.967Z,100629.53
2019-04-30T00:04:37.522Z,100627.55
2019-04-30T00:07:00.385Z,100629.23
2019-04-30T00:09:29.086Z,100623.30
2019-04-30T00:12:00.937Z,100621.50
2019-04-30T00:14:32.012Z,100612.55
2019-04-30T00:16:56.546Z,100610.48
2019-04-30T00:19:25.922Z,100613.92
2019-04-30T00:21:57.529Z,100614.16
2019-04-30T00:24:25.841Z,100615.11
2019-04-30T00:26:55.177Z,100607.45
2019-04-30T00:29:26.660Z,100609.83
2019-04-30T00:31:57.643Z,100606.30
2019-04-30T00:34:25.000Z,100603.05
2019-04-30T00:36:53.027Z,100604.65
2019-04-30T00:39:21.055Z,100605.68
2019-04-30T00:41:48.927Z,100604.10
2019-04-30T00:44:20.015Z,100607.66
2019-04-30T00:46:48.013Z,100597.41
2019-04-30T00:49:22.682Z,100601.95
2019-04-30T00:51:45.643Z,100597.41
2019-04-30T00:54:15.240Z,100597.39
2019-04-30T00:56:43.223Z,100605.05
2019-04-30T00:59:12.473Z,100605.70
2019-04-30T01:02:20.057Z,100606.94
2019-04-30T01:04:47.016Z,100610.50
2019-04-30T01:07:15.523Z,100604.70
2019-04-30T01:09:46.496Z,100602.31
2019-04-30T01:12:19.108Z,100601.95
2019-04-30T01:14:45.298Z,100597.09
2019-04-30T01:17:15.732Z,100603.64
2019-04-30T01:19:45.875Z,100597.55
2019-04-30T01:22:13.698Z,100601.25
2019-04-30T01:24:41.871Z,100602.44
2019-04-30T01:27:10.718Z,100596.95
2019-04-30T01:29:44.003Z,100599.69
2019-04-30T01:32:10.414Z,100598.25
2019-04-30T01:34:39.522Z,100596.63
2019-04-30T01:37:08.754Z,100587.37
2019-04-30T01:39:36.675Z,100591.32
2019-04-30T01:42:07.871Z,100585.53
2019-04-30T01:44:34.213Z,100594.34
2019-04-30T01:47:01.997Z,100590.78
2019-04-30T01:49:41.530Z,100597.19
2019-04-30T01:52:01.342Z,100591.44
2019-04-30T01:54:31.094Z,100591.62
2019-04-30T01:57:21.087Z,100586.55
2019-04-30T02:00:20.413Z,100590.81
2019-04-30T02:02:49.590Z,100590.30
2019-04-30T02:05:18.892Z,100600.07
2019-04-30T02:07:48.575Z,100605.81
2019-04-30T02:10:18.966Z,100600.17
2019-04-30T02:12:46.786Z,100601.48
2019-04-30T02:15:14.619Z,100609.36
2019-04-30T02:17:43.613Z,100614.28
2019-04-30T02:20:13.222Z,100619.58
2019-04-30T02:22:41.026Z,100613.16
2019-04-30T02:25:09.683Z,100612.78
2019-04-30T02:27:39.016Z,100616.30
2019-04-30T02:30:10.761Z,100610.97
2019-04-30T02:32:39.508Z,100623.34
2019-04-30T02:35:19.390Z,100616.27
2019-04-30T02:38:05.708Z,100615.47
2019-04-30T02:40:35.834Z,100618.16
2019-04-30T02:43:04.235Z,100618.47
2019-04-30T02:45:35.833Z,100616.70
2019-04-30T02:48:04.411Z,100616.87
2019-04-30T02:50:39.186Z,100621.79
2019-04-30T02:53:52.801Z,100619.92
2019-04-30T02:56:26.328Z,100618.28
2019-04-30T02:58:54.375Z,100620.78
2019-04-30T03:01:22.250Z,100620.60
2019-04-30T03:03:50.800Z,100618.83
2019-04-30T03:06:23.176Z,100618.70
2019-04-30T03:08:51.208Z,100613.98
2019-04-30T03:11:20.786Z,100614.03
2019-04-30T03:13:49.478Z,100613.24
2019-04-30T03:16:21.473Z,100618.75
2019-04-30T03:19:05.532Z,100620.84
2019-04-30T03:21:50.448Z,100626.23
2019-04-30T03:24:20.213Z,100627.80
2019-04-30T03:26:49.925Z,100624.78
2019-04-30T03:29:20.444Z,100621.50
2019-04-30T03:31:52.212Z,100629.94
2019-04-30T03:34:25.132Z,100621.13
2019-04-30T03:36:50.458Z,100626.12
2019-04-30T03:39:19.895Z,100626.28
2019-04-30T03:41:50.138Z,100627.81
2019-04-30T03:44:25.462Z,100628.77
2019-04-30T03:46:49.824Z,100627.63
2019-04-30T03:49:20.333Z,100631.54
2019-04-30T03:51:49.705Z,100628.56
2019-04-30T03:54:19.325Z,100630.34
2019-04-30T03:56:49.913Z,100634.39
2019-04-30T03:59:16.850Z,100642.09
2019-04-30T04:01:53.923Z,100645.42
2019-04-30T04:04:39.534Z,100641.23
2019-04-30T04:07:41.572Z,100645.25
2019-04-30T04:10:31.895Z,100646.58
2019-04-30T04:12:59.821Z,100650.59
2019-04-30T04:15:29.941Z,100653.61
2019-04-30T04:18:00.219Z,100652.30
2019-04-30T04:20:29.897Z,100660.95
2019-04-30T04:22:59.685Z,100660.11
2019-04-30T04:25:29.965Z,100662.25
2019-04-30T04:28:00.364Z,100671.48
2019-04-30T04:30:29.729Z,100667.94
2019-04-30T04:32:59.683Z,100663.38
2019-04-30T04:35:29.848Z,100669.33
2019-04-30T04:37:57.181Z,100670.31
2019-04-30T04:40:25.072Z,100666.66
2019-04-30T04:42:52.821Z,100671.24
2019-04-30T04:45:20.661Z,100677.88
2019-04-30T04:47:50.404Z,100672.85
2019-04-30T04:50:20.037Z,100674.85
2019-04-30T04:52:49.564Z,100679.12
2019-04-30T04:55:22.285Z,100677.61
2019-04-30T04:57:50.277Z,100670.14
2019-04-30T05:00:19.390Z,100675.97
2019-04-30T05:03:24.966Z,100681.53
2019-04-30T05:05:52.847Z,100683.30
2019-04-30T05:08:20.647Z,100680.66
2019-04-30T05:10:49.507Z,100687.70
2019-04-30T05:13:19.084Z,100685.16
2019-04-30T05:15:51.241Z,100689.03
2019-04-30T05:18:19.053Z,100693.17
2019-04-30T05:20:48.981Z,100694.56
2019-04-30T05:23:21.541Z,100691.88
2019-04-30T05:25:48.701Z,100692.98
2019-04-30T05:28:18.756Z,100697.69
2019-04-30T05:30:46.740Z,100698.79
2019-04-30T05:33:14.565Z,100695.28
2019-04-30T05:35:42.970Z,100696.77
2019-04-30T05:38:10.780Z,100695.63
2019-04-30T05:40:39.827Z,100693.94
2019-04-30T05:43:09.057Z,100700.72
2019-04-30T05:45:39.134Z,100689.03
2019-04-30T05:48:08.747Z,100694.41
2019-04-30T05:50:38.982Z,100698.98
2019-04-30T05:53:06.747Z,100693.98
2019-04-30T05:55:34.603Z,100688.05
2019-04-30T05:58:02.390Z,100690.16
2019-04-30T06:00:31.810Z,100700.62
2019-04-30T06:02:59.634Z,100693.83
2019-04-30T06:05:28.566Z,100699.22
2019-04-30T06:07:59.202Z,100700.27
2019-04-30T06:10:41.797Z,100696.05
2019-04-30T06:13:16.325Z,100696.69
2019-04-30T06:15:49.067Z,100692.13
2019-04-30T06:18:18.575Z,100694.64
2019-04-30T06:20:48.559Z,100693.45
2019-04-30T06:23:16.927Z,100690.84
2019-04-30T06:25:56.282Z,100688.91
2019-04-30T06:28:15.017Z,100681.50
2019-04-30T06:30:43.314Z,100693.30
2019-04-30T06:33:11.740Z,100693.80
2019-04-30T06:35:40.161Z,100694.27
2019-04-30T06:38:08.595Z,100702.23
2019-04-30T06:40:36.640Z,100701.88
2019-04-30T06:43:04.984Z,100699.38
2019-04-30T06:45:34.692Z,100696.20
2019-04-30T06:48:04.002Z,100688.80
2019-04-30T06:50:32.036Z,100685.62
2019-04-30T06:53:01.612Z,100688.36
2019-04-30T06:55:30.945Z,100688.73
2019-04-30T06:58:11.463Z,100685.20
2019-04-30T07:00:35.830Z,100687.02
2019-04-30T07:03:04.956Z,100687.27
2019-04-30T07:05:32.820Z,100686.20
2019-04-30T07:08:19.047Z,100684.84
2019-04-30T07:10:55.698Z,100685.35
2019-04-30T07:13:24.099Z,100676.30
2019-04-30T07:15:51.913Z,100672.16
2019-04-30T07:18:19.787Z,100679.60
2019-04-30T07:20:48.649Z,100678.92
2019-04-30T07:23:18.698Z,100683.61
2019-04-30T07:25:46.423Z,100688.41
2019-04-30T07:28:14.348Z,100687.87
2019-04-30T07:30:42.311Z,100688.70
2019-04-30T07:33:10.102Z,100699.52
2019-04-30T07:35:39.745Z,100691.71
2019-04-30T07:38:09.317Z,100679.77
2019-04-30T07:40:39.028Z,100689.53
2019-04-30T07:43:08.893Z,100697.61
2019-04-30T07:45:36.738Z,100689.05
2019-04-30T07:48:04.655Z,100687.10
2019-04-30T07:50:33.168Z,100692.09
2019-04-30T07:53:05.711Z,100689.97
2019-04-30T07:55:31.071Z,100686.03
2019-04-30T07:57:59.249Z,100685.88
2019-04-30T08:00:30.959Z,100689.14
2019-04-30T08:03:08.417Z,100693.77
2019-04-30T08:05:40.709Z,100689.37
2019-04-30T08:08:20.137Z,100682.15
2019-04-30T08:10:39.364Z,100676.11
2019-04-30T08:13:13.904Z,100678.18
2019-04-30T08:15:42.183Z,100683.08
2019-04-30T08:18:08.731Z,100683.63
2019-04-30T08:20:36.670Z,100687.40
2019-04-30T08:23:15.589Z,100685.63
2019-04-30T08:25:34.270Z,100684.11
2019-04-30T08:28:02.105Z,100693.18
2019-04-30T08:30:30.184Z,100679.99
2019-04-30T08:32:59.580Z,100677.77
2019-04-30T08:35:29.535Z,100672.34
2019-04-30T08:37:59.069Z,100672.67
2019-04-30T08:40:27.146Z,100674.77
2019-04-30T08:42:55.026Z,100670.05
2019-04-30T08:45:22.800Z,100674.41
2019-04-30T08:47:53.374Z,100675.39
2019-04-30T08:50:22.308Z,100671.63
2019-04-30T08:52:50.706Z,100675.20
2019-04-30T08:55:19.744Z,100671.23
2019-04-30T08:57:50.065Z,100670.86
2019-04-30T09:00:19.545Z,100675.09
2019-04-30T09:02:49.214Z,100671.16
2019-04-30T09:05:23.274Z,100675.60
2019-04-30T09:07:51.126Z,100684.00
2019-04-30T09:10:19.330Z,100672.05
2019-04-30T09:12:49.622Z,100669.39
2019-04-30T09:15:18.731Z,100673.26
2019-04-30T09:17:58.895Z,100671.07
2019-04-30T09:20:16.429Z,100666.12
2019-04-30T09:22:44.347Z,100670.89
2019-04-30T09:25:12.193Z,100663.52
2019-04-30T09:27:40.134Z,100656.36
2019-04-30T09:30:10.397Z,100657.52
2019-04-30T09:32:38.977Z,100667.63
2019-04-30T09:35:07.301Z,100660.73
2019-04-30T09:37:35.416Z,100652.07
2019-04-30T09:40:15.295Z,100653.48
2019-04-30T09:42:33.625Z,100649.31
2019-04-30T09:45:01.468Z,100651.13
2019-04-30T09:47:29.633Z,100647.89
2019-04-30T09:49:59.593Z,100651.25
2019-04-30T09:52:30.237Z,100649.48
2019-04-30T09:54:57.203Z,100655.15
2019-04-30T09:57:26.224Z,100643.59
2019-04-30T09:59:54.007Z,100645.82
2019-04-30T10:02:21.947Z,100650.80
2019-04-30T10:04:50.283Z,100645.72
2019-04-30T10:07:19.535Z,100647.41
2019-04-30T10:09:50.698Z,100640.48
2019-04-30T10:12:19.368Z,100634.38
2019-04-30T10:14:47.109Z,100623.48
2019-04-30T10:17:34.858Z,100624.70
2019-04-30T10:20:03.885Z,100633.73
2019-04-30T10:22:31.731Z,100638.16
2019-04-30T10:24:59.768Z,100633.48
2019-04-30T10:27:29.372Z,100620.04
2019-04-30T10:29:59.259Z,100619.55
2019-04-30T10:32:27.571Z,100617.55
2019-04-30T10:34:55.458Z,100613.47
2019-04-30T10:37:23.302Z,100605.91
2019-04-30T10:39:51.503Z,100605.06
2019-04-30T10:42:19.415Z,100595.83
2019-04-30T10:44:47.274Z,100606.73
2019-04-30T10:47:15.402Z,100598.91
2019-04-30T10:49:43.186Z,100600.20
2019-04-30T10:52:11.044Z,100597.05
2019-04-30T10:54:39.032Z,100595.58
2019-04-30T10:57:08.568Z,100599.06
2019-04-30T10:59:36.692Z,100610.54
2019-04-30T11:02:04.920Z,100603.37
2019-04-30T11:04:32.795Z,100603.11
2019-04-30T11:07:00.908Z,100613.06
2019-04-30T11:09:31.014Z,100603.70
2019-04-30T11:11:59.475Z,100608.45
2019-04-30T11:14:27.322Z,100615.52
2019-04-30T11:16:55.309Z,100600.34
2019-04-30T11:19:23.478Z,100600.00
2019-04-30T11:21:51.599Z,100596.16
2019-04-30T11:24:19.960Z,100599.50
2019-04-30T11:26:50.024Z,100590.69
2019-04-30T11:29:17.751Z,100592.70
2019-04-30T11:32:10.185Z,100586.26
2019-04-30T11:34:38.083Z,100576.33
2019-04-30T11:37:05.969Z,100571.39
2019-04-30T11:39:33.783Z,100571.70
2019-04-30T11:42:01.833Z,100565.78
2019-04-30T11:44:31.575Z,100562.98
2019-04-30T11:47:38.467Z,100558.97
2019-04-30T11:50:11.112Z,100574.61
2019-04-30T11:52:38.942Z,100569.14
2019-04-30T11:55:09.617Z,100565.98
2019-04-30T11:57:39.710Z,100565.91
2019-04-30T12:00:13.350Z,100566.30
2019-04-30T12:02:41.546Z,100570.02
2019-04-30T12:05:13.223Z,100559.01
2019-04-30T12:07:52.603Z,100549.72
2019-04-30T12:10:46.013Z,100541.52
2019-04-30T12:13:23.701Z,100545.02
2019-04-30T12:15:52.181Z,100539.34
2019-04-30T12:18:20.068Z,100537.73
2019-04-30T12:20:47.924Z,100536.27
2019-04-30T12:23:15.776Z,100542.89
2019-04-30T12:25:43.575Z,100527.31
2019-04-30T12:28:11.381Z,100529.42
2019-04-30T12:30:39.221Z,100531.84
2019-04-30T12:33:08.994Z,100518.13
2019-04-30T12:35:36.789Z,100512.94
2019-04-30T12:38:04.927Z,100524.07
2019-04-30T12:40:32.809Z,100519.94
2019-04-30T12:43:00.738Z,100522.00
2019-04-30T12:45:29.444Z,100511.46
2019-04-30T12:48:01.213Z,100508.80
2019-04-30T12:50:51.154Z,100506.20
2019-04-30T12:53:27.757Z,100509.91
2019-04-30T12:56:21.247Z,100512.36
2019-04-30T12:58:47.648Z,100510.05
2019-04-30T13:01:17.442Z,100508.19
2019-04-30T13:03:55.928Z,100506.64
2019-04-30T13:06:15.455Z,100499.34
2019-04-30T13:08:43.945Z,100485.34
2019-04-30T13:11:13.294Z,100487.39
2019-04-30T13:13:42.379Z,100490.10
2019-04-30T13:16:10.618Z,100477.37
2019-04-30T13:18:39.363Z,100474.32
2019-04-30T13:21:08.541Z,100467.23
2019-04-30T13:23:36.529Z,100468.96
2019-04-30T13:26:04.372Z,100466.23
2019-04-30T13:28:41.290Z,100458.62
2019-04-30T13:31:09.331Z,100455.67
2019-04-30T13:33:42.998Z,100452.87
2019-04-30T13:36:10.942Z,100463.03
2019-04-30T13:38:55.992Z,100466.19
2019-04-30T13:41:46.931Z,100460.71
2019-04-30T13:44:19.506Z,100456.34
2019-04-30T13:46:47.470Z,100445.91
2019-04-30T13:49:15.599Z,100452.41
2019-04-30T13:51:43.451Z,100441.50
2019-04-30T13:54:11.251Z,100434.26
2019-04-30T13:56:39.749Z,100437.00
2019-04-30T13:59:07.758Z,100437.04
2019-04-30T14:01:35.619Z,100440.80
2019-04-30T14:04:13.581Z,100432.83
2019-04-30T14:06:51.887Z,100431.55
2019-04-30T14:09:24.784Z,100434.07
2019-04-30T14:11:52.660Z,100442.81
2019-04-30T14:14:20.609Z,100428.82
2019-04-30T14:16:48.531Z,100444.98
2019-04-30T14:19:16.360Z,100435.54
2019-04-30T14:21:44.169Z,100428.17
2019-04-30T14:24:11.957Z,100436.13
2019-04-30T14:26:39.780Z,100437.27
2019-04-30T14:29:07.554Z,100443.09
2019-04-30T14:31:35.410Z,100445.03
2019-04-30T14:34:03.390Z,100436.48
2019-04-30T14:36:31.232Z,100438.31
2019-04-30T14:39:13.069Z,100427.33
2019-04-30T14:41:31.741Z,100421.69
2019-04-30T14:44:04.991Z,100424.42
2019-04-30T14:46:45.788Z,100427.07
2019-04-30T14:49:42.663Z,100424.33
2019-04-30T14:52:11.840Z,100415.41
2019-04-30T14:54:59.496Z,100416.85
2019-04-30T14:57:55.716Z,100418.64
2019-04-30T15:00:45.888Z,100414.25
2019-04-30T15:03:14.687Z,100406.34
2019-04-30T15:05:48.887Z,100410.80
2019-04-30T15:08:12.221Z,100406.76
2019-04-30T15:10:40.126Z,100407.06
2019-04-30T15:13:09.761Z,100407.05
2019-04-30T15:15:39.166Z,100407.30
2019-04-30T15:18:09.086Z,100409.80
2019-04-30T15:20:36.900Z,100406.56
2019-04-30T15:23:19.197Z,100398.10
2019-04-30T15:25:45.616Z,100401.89
2019-04-30T15:28:13.434Z,100398.98
2019-04-30T15:30:42.090Z,100400.95
2019-04-30T15:33:22.941Z,100392.45
2019-04-30T15:35:50.751Z,100399.73
2019-04-30T15:38:20.411Z,100401.92
2019-04-30T15:40:48.223Z,100394.55
2019-04-30T15:43:16.155Z,100400.58
2019-04-30T15:45:44.013Z,100406.03
2019-04-30T15:48:11.784Z,100401.09
2019-04-30T15:50:39.636Z,100405.20
2019-04-30T15:53:09.358Z,100408.19
2019-04-30T15:55:37.156Z,100402.70
2019-04-30T15:58:15.137Z,100402.73
2019-04-30T16:00:42.987Z,100401.65
2019-04-30T16:03:17.083Z,100401.11
2019-04-30T16:05:47.452Z,100396.75
2019-04-30T16:08:23.829Z,100397.83
2019-04-30T16:11:10.580Z,100399.75
2019-04-30T16:13:58.500Z,100394.84
2019-04-30T16:16:30.114Z,100405.20
2019-04-30T16:18:58.787Z,100395.91
2019-04-30T16:21:26.742Z,100389.05
2019-04-30T16:23:54.526Z,100383.52
2019-04-30T16:26:22.306Z,100391.41
2019-04-30T16:28:50.400Z,100381.64
2019-04-30T16:31:20.304Z,100387.92
2019-04-30T16:33:48.838Z,100377.56
2019-04-30T16:36:19.212Z,100381.66
2019-04-30T16:38:48.597Z,100376.98
2019-04-30T16:41:28.500Z,100376.99
2019-04-30T16:43:46.183Z,100376.44
2019-04-30T16:46:14.009Z,100372.09
2019-04-30T16:48:42.142Z,100382.52
2019-04-30T16:51:09.922Z,100380.04
2019-04-30T16:53:38.359Z,100375.13
2019-04-30T16:56:08.567Z,100378.16
2019-04-30T16:58:54.857Z,100366.95
2019-04-30T17:01:22.789Z,100368.05
2019-04-30T17:03:54.096Z,100372.16
2019-04-30T17:06:24.150Z,100366.11
2019-04-30T17:09:09.174Z,100366.34
2019-04-30T17:11:55.242Z,100367.42
2019-04-30T17:14:23.097Z,100365.51
2019-04-30T17:16:50.932Z,100370.39
2019-04-30T17:19:19.132Z,100362.17
2019-04-30T17:21:47.469Z,100364.36
2019-04-30T17:24:15.309Z,100367.91
2019-04-30T17:26:43.170Z,100367.91
2019-04-30T17:29:11.063Z,100364.86
2019-04-30T17:31:38.875Z,100368.94
2019-04-30T17:34:06.812Z,100366.19
2019-04-30T17:36:34.691Z,100367.45
2019-04-30T17:39:04.074Z,100369.09
2019-04-30T17:41:31.921Z,100369.27
2019-04-30T17:43:59.714Z,100364.36
2019-04-30T17:46:28.491Z,100367.91
2019-04-30T17:48:56.454Z,100374.41
2019-04-30T17:51:24.314Z,100362.85
2019-04-30T17:54:10.374Z,100359.23
2019-04-30T17:56:38.312Z,100366.02
2019-04-30T17:59:06.310Z,100355.87
2019-04-30T18:01:35.072Z,100359.02
2019-04-30T18:04:03.111Z,100365.48
2019-04-30T18:06:31.082Z,100364.09
2019-04-30T18:08:59.076Z,100362.87
2019-04-30T18:11:27.056Z,100369.02
2019-04-30T18:13:55.008Z,100365.09
2019-04-30T18:16:22.944Z,100363.38
2019-04-30T18:18:56.604Z,100361.65
2019-04-30T18:21:31.725Z,100363.48
2019-04-30T18:24:19.433Z,100364.73
2019-04-30T18:26:52.713Z,100359.39
2019-04-30T18:29:20.547Z,100367.44
2019-04-30T18:31:48.360Z,100365.13
2019-04-30T18:34:16.228Z,100364.44
2019-04-30T18:36:44.062Z,100364.03
2019-04-30T18:39:12.332Z,100363.38
2019-04-30T18:41:40.202Z,100366.05
2019-04-30T18:44:09.504Z,100368.25
2019-04-30T18:46:39.030Z,100364.39
2019-04-30T18:49:07.034Z,100370.90
2019-04-30T18:51:39.510Z,100372.35
2019-04-30T18:54:05.011Z,100375.82
2019-04-30T18:56:32.898Z,100371.08
2019-04-30T18:59:01.085Z,100374.84
2019-04-30T19:01:28.974Z,100373.23
2019-04-30T19:03:58.460Z,100369.91
2019-04-30T19:06:26.607Z,100381.08
2019-04-30T19:09:17.194Z,100379.73
2019-04-30T19:11:51.373Z,100383.62
2019-04-30T19:14:39.531Z,100383.86
2019-04-30T19:17:27.175Z,100388.77
2019-04-30T19:20:04.391Z,100394.56
2019-04-30T19:22:32.253Z,100385.03
2019-04-30T19:25:04.049Z,100392.87
2019-04-30T19:27:29.840Z,100392.89
2019-04-30T19:29:59.441Z,100393.48
2019-04-30T19:32:30.269Z,100392.09
2019-04-30T19:34:58.995Z,100397.42
2019-04-30T19:37:26.927Z,100396.10
2019-04-30T19:39:54.856Z,100396.55
2019-04-30T19:42:24.066Z,100389.39
2019-04-30T19:44:59.763Z,100394.98
2019-04-30T19:47:21.774Z,100391.27
2019-04-30T19:49:49.670Z,100395.15
2019-04-30T19:52:19.217Z,100394.50
2019-04-30T19:54:48.749Z,100397.20
2019-04-30T19:57:16.798Z,100402.84
2019-04-30T19:59:44.742Z,100405.75
2019-04-30T20:02:12.651Z,100402.20
2019-04-30T20:04:42.286Z,100400.66
2019-04-30T20:07:10.335Z,100403.48
2019-04-30T20:09:38.213Z,100403.08
2019-04-30T20:12:06.030Z,100404.67
2019-04-30T20:14:33.918Z,100401.61
2019-04-30T20:17:01.772Z,100396.47
2019-04-30T20:19:30.789Z,100407.77
2019-04-30T20:21:59.517Z,100399.18
2019-04-30T20:24:29.358Z,100401.21
2019-04-30T20:27:06.791Z,100405.94
2019-04-30T20:29:28.904Z,100400.34
2019-04-30T20:31:58.806Z,100397.72
2019-04-30T20:34:26.800Z,100405.30
2019-04-30T20:36:58.337Z,100408.26
2019-04-30T20:39:35.190Z,100408.62
2019-04-30T20:42:03.139Z,100405.45
2019-04-30T20:44:31.051Z,100406.16
2019-04-30T20:46:59.161Z,100405.37
2019-04-30T20:49:29.004Z,100405.05
2019-04-30T20:51:58.849Z,100403.09
2019-04-30T20:54:26.697Z,100402.21
2019-04-30T20:56:54.538Z,100399.60
2019-04-30T20:59:22.388Z,100398.92
2019-04-30T21:01:50.224Z,100394.64
2019-04-30T21:04:20.718Z,100395.77
2019-04-30T21:06:49.617Z,100396.65
2019-04-30T21:09:17.636Z,100395.70
2019-04-30T21:11:45.444Z,100395.39
2019-04-30T21:14:13.253Z,100392.95
2019-04-30T21:16:41.059Z,100391.61
2019-04-30T21:19:09.042Z,100396.72
2019-04-30T21:21:38.700Z,100398.67
2019-04-30T21:24:06.780Z,100390.33
2019-04-30T21:26:34.703Z,100395.60
2019-04-30T21:29:11.153Z,100396.87
2019-04-30T21:31:50.367Z,100394.23
2019-04-30T21:34:29.324Z,100401.89
2019-04-30T21:36:59.545Z,100401.38
2019-04-30T21:39:27.559Z,100408.72
2019-04-30T21:41:55.361Z,100401.92
2019-04-30T21:44:23.145Z,100401.16
2019-04-30T21:46:50.951Z,100399.42
2019-04-30T21:49:18.809Z,100397.46
2019-04-30T21:51:46.642Z,100399.19
2019-04-30T21:54:14.491Z,100394.02
2019-04-30T21:56:42.375Z,100394.38
2019-04-30T21:59:10.348Z,100391.02
2019-04-30T22:01:40.599Z,100393.27
2019-04-30T22:04:08.556Z,100390.99
2019-04-30T22:06:36.341Z,100388.68
2019-04-30T22:09:06.429Z,100388.97
2019-04-30T22:11:34.273Z,100382.38
2019-04-30T22:14:02.117Z,100384.61
2019-04-30T22:16:29.930Z,100386.63
2019-04-30T22:18:57.860Z,100382.65
2019-04-30T22:21:25.676Z,100380.69
2019-04-30T22:23:53.487Z,100384.03
2019-04-30T22:26:21.319Z,100382.62
2019-04-30T22:28:49.566Z,100382.33
2019-04-30T22:31:19.562Z,100380.14
2019-04-30T22:33:49.015Z,100375.68
2019-04-30T22:36:24.998Z,100376.58
2019-04-30T22:39:29.642Z,100377.22
2019-04-30T22:42:29.829Z,100380.14
2019-04-30T22:44:58.571Z,100374.86
2019-04-30T22:47:26.398Z,100379.80
2019-04-30T22:49:54.272Z,100369.13
2019-04-30T22:52:22.139Z,100372.50
2019-04-30T22:54:49.978Z,100375.49
2019-04-30T22:57:17.752Z,100362.90
2019-04-30T22:59:49.996Z,100367.33
2019-04-30T23:02:26.478Z,100366.27
2019-04-30T23:04:54.274Z,100366.27
2019-04-30T23:07:22.142Z,100358.19
2019-04-30T23:09:50.008Z,100356.55
2019-04-30T23:12:17.865Z,100359.91
2019-04-30T23:14:45.674Z,100357.56
2019-04-30T23:17:13.533Z,100353.73
2019-04-30T23:19:41.318Z,100359.98
2019-04-30T23:22:09.128Z,100364.64
2019-04-30T23:24:36.930Z,100357.78
2019-04-30T23:27:04.772Z,100356.95
2019-04-30T23:29:32.545Z,100352.44
2019-04-30T23:32:00.377Z,100350.48
2019-04-30T23:34:28.167Z,100341.48
2019-04-30T23:36:55.948Z,100343.56
2019-04-30T23:39:23.876Z,100340.81
2019-04-30T23:41:51.805Z,100342.23
2019-04-30T23:44:19.643Z,100338.73
2019-04-30T23:46:47.601Z,100334.35
2019-04-30T23:49:15.499Z,100335.37
2019-04-30T23:51:43.327Z,100331.05
2019-04-30T23:54:11.159Z,100324.03
2019-04-30T23:56:39.026Z,100325.16
2019-04-30T23:59:06.944Z,100321.27
